createdAt,value
2019-03-05T00:00:17.573Z,929.88
2019-03-05T00:01:18.403Z,929.82
2019-03-05T00:02:19.429Z,929.9
2019-03-05T00:03:20.462Z,929.86
2019-03-05T00:04:20.935Z,929.88
2019-03-05T00:05:21.411Z,929.9
2019-03-05T00:06:21.886Z,929.85
2019-03-05T00:07:22.702Z,929.84
2019-03-05T00:08:23.361Z,929.87
2019-03-05T00:09:23.552Z,929.9
2019-03-05T00:10:24.357Z,930.04
2019-03-05T00:11:24.554Z,929.99
2019-03-05T00:12:24.756Z,929.89
2019-03-05T00:13:25.793Z,929.99
2019-03-05T00:14:26.845Z,930.06
2019-03-05T00:15:27.519Z,929.97
2019-03-05T00:16:28.831Z,930.08
2019-03-05T00:17:29.895Z,930.09
2019-03-05T00:18:30.841Z,930.09
2019-03-05T00:19:31.318Z,930.12
2019-03-05T00:20:32.071Z,930.13
2019-03-05T00:21:32.550Z,930.22
2019-03-05T00:22:33.136Z,930.19
2019-03-05T00:23:33.606Z,930.24
2019-03-05T00:24:34.634Z,930.21
2019-03-05T00:25:35.107Z,930.35
2019-03-05T00:26:36.140Z,930.11
2019-03-05T00:27:36.977Z,930.24
2019-03-05T00:28:37.465Z,930.26
2019-03-05T00:29:38.222Z,930.26
2019-03-05T00:30:38.417Z,930.27
2019-03-05T00:31:39.224Z,930.23
2019-03-05T00:32:39.980Z,930.25
2019-03-05T00:33:40.733Z,930.23
2019-03-05T00:34:41.210Z,930.27
2019-03-05T00:35:41.689Z,930.28
2019-03-05T00:36:42.173Z,930.26
2019-03-05T00:37:42.930Z,930.3
2019-03-05T00:38:43.866Z,930.35
2019-03-05T00:39:44.065Z,930.25
2019-03-05T00:40:44.257Z,930.19
2019-03-05T00:41:45.007Z,930.32
2019-03-05T00:42:45.597Z,930.3
2019-03-05T00:43:45.797Z,930.27
2019-03-05T00:44:46.827Z,930.41
2019-03-05T00:45:47.358Z,930.36
2019-03-05T00:46:47.836Z,930.46
2019-03-05T00:47:49.143Z,930.5
2019-03-05T00:48:49.901Z,930.59
2019-03-05T00:49:50.104Z,930.58
2019-03-05T00:50:50.860Z,930.51
2019-03-05T00:51:51.335Z,930.62
2019-03-05T00:52:52.096Z,930.59
2019-03-05T00:53:53.130Z,930.58
2019-03-05T00:54:53.332Z,930.59
2019-03-05T00:55:53.528Z,930.51
2019-03-05T00:56:54.281Z,930.5
2019-03-05T00:57:55.037Z,930.45
2019-03-05T00:58:55.960Z,930.37
2019-03-05T00:59:56.436Z,930.33
2019-03-05T01:00:57.195Z,930.41
2019-03-05T01:01:57.951Z,930.33
2019-03-05T01:02:58.427Z,930.35
2019-03-05T01:03:59.178Z,930.35
2019-03-05T01:04:59.491Z,930.37
2019-03-05T01:06:00.540Z,930.33
2019-03-05T01:07:01.859Z,930.28
2019-03-05T01:08:02.622Z,930.37
2019-03-05T01:09:03.670Z,930.31
2019-03-05T01:10:04.144Z,930.27
2019-03-05T01:11:04.343Z,930.27
2019-03-05T01:12:04.818Z,930.23
2019-03-05T01:13:05.848Z,930.2
2019-03-05T01:14:06.388Z,930.23
2019-03-05T01:15:06.635Z,930.2
2019-03-05T01:16:07.110Z,930.18
2019-03-05T01:17:07.593Z,930.25
2019-03-05T01:18:08.648Z,930.22
2019-03-05T01:19:12.470Z,930.19
2019-03-05T01:20:12.854Z,930.22
2019-03-05T01:21:13.062Z,930.26
2019-03-05T01:22:14.375Z,930.11
2019-03-05T01:23:14.722Z,930.15
2019-03-05T01:24:15.476Z,930.22
2019-03-05T01:25:16.502Z,930.23
2019-03-05T01:26:17.259Z,930.21
2019-03-05T01:27:17.750Z,930.08
2019-03-05T01:28:17.946Z,930.13
2019-03-05T01:29:18.605Z,930.06
2019-03-05T01:30:19.082Z,930.09
2019-03-05T01:31:19.578Z,930.1
2019-03-05T01:32:20.373Z,930.12
2019-03-05T01:33:20.848Z,930.15
2019-03-05T01:34:21.158Z,930.05
2019-03-05T01:35:21.352Z,930.09
2019-03-05T01:36:21.832Z,930.09
2019-03-05T01:37:22.589Z,930.07
2019-03-05T01:38:23.898Z,930.18
2019-03-05T01:39:24.592Z,930.2
2019-03-05T01:40:25.627Z,930.15
2019-03-05T01:41:26.377Z,930.15
2019-03-05T01:42:27.683Z,930.19
2019-03-05T01:43:28.440Z,930.19
2019-03-05T01:44:29.219Z,930.2
2019-03-05T01:45:30.263Z,930.24
2019-03-05T01:46:30.469Z,930.23
2019-03-05T01:47:31.286Z,930.17
2019-03-05T01:47:41.317Z,930.14
2019-03-05T01:48:41.952Z,930.19
2019-03-05T01:49:42.982Z,930.17
2019-03-05T01:50:44.017Z,930.15
2019-03-05T01:51:44.495Z,930.17
2019-03-05T01:52:45.268Z,930.14
2019-03-05T01:53:45.741Z,930.1
2019-03-05T01:54:46.228Z,930.21
2019-03-05T01:55:46.706Z,930.13
2019-03-05T01:56:47.461Z,930.08
2019-03-05T01:57:48.489Z,930.04
2019-03-05T01:58:49.412Z,930.06
2019-03-05T01:59:50.172Z,930.07
2019-03-05T02:00:50.370Z,930.09
2019-03-05T02:01:50.685Z,930.12
2019-03-05T02:02:51.161Z,930.1
2019-03-05T02:03:51.356Z,930.07
2019-03-05T02:04:52.387Z,930.07
2019-03-05T02:05:52.586Z,929.98
2019-03-05T02:06:53.337Z,930.01
2019-03-05T02:07:53.816Z,929.99
2019-03-05T02:08:54.026Z,929.97
2019-03-05T02:09:54.781Z,929.97
2019-03-05T02:10:55.543Z,929.96
2019-03-05T02:11:56.015Z,929.92
2019-03-05T02:12:56.395Z,929.96
2019-03-05T02:13:57.178Z,929.94
2019-03-05T02:14:57.379Z,929.97
2019-03-05T02:15:58.131Z,929.99
2019-03-05T02:16:58.882Z,929.96
2019-03-05T02:17:59.634Z,929.84
2019-03-05T02:18:59.926Z,929.93
2019-03-05T02:20:00.939Z,929.88
2019-03-05T02:21:01.246Z,929.92
2019-03-05T02:22:02.048Z,929.94
2019-03-05T02:23:02.799Z,929.96
2019-03-05T02:24:03.173Z,929.95
2019-03-05T02:25:03.675Z,929.92
2019-03-05T02:26:03.975Z,929.87
2019-03-05T02:27:04.724Z,929.92
2019-03-05T02:28:05.746Z,929.93
2019-03-05T02:29:06.647Z,929.92
2019-03-05T02:30:08.020Z,929.93
2019-03-05T02:31:08.607Z,929.91
2019-03-05T02:32:09.633Z,929.92
2019-03-05T02:33:10.120Z,929.91
2019-03-05T02:34:10.586Z,929.98
2019-03-05T02:35:11.182Z,929.94
2019-03-05T02:36:11.768Z,929.92
2019-03-05T02:37:12.930Z,929.9
2019-03-05T02:38:14.062Z,929.83
2019-03-05T02:39:14.525Z,929.87
2019-03-05T02:40:15.187Z,929.91
2019-03-05T02:41:16.576Z,929.91
2019-03-05T02:42:17.367Z,929.9
2019-03-05T02:43:18.006Z,929.97
2019-03-05T02:44:19.307Z,929.95
2019-03-05T02:45:19.619Z,930.03
2019-03-05T02:46:20.208Z,930.01
2019-03-05T02:47:21.535Z,929.98
2019-03-05T02:48:22.139Z,930.01
2019-03-05T02:49:22.719Z,930.01
2019-03-05T02:50:24.120Z,929.91
2019-03-05T02:51:24.990Z,929.95
2019-03-05T02:52:25.615Z,929.97
2019-03-05T02:53:26.561Z,929.93
2019-03-05T02:54:27.450Z,929.88
2019-03-05T02:55:28.873Z,929.95
2019-03-05T02:56:29.187Z,929.95
2019-03-05T02:57:30.257Z,929.91
2019-03-05T02:58:31.034Z,929.91
2019-03-05T02:59:32.085Z,929.87
2019-03-05T03:00:33.393Z,929.92
2019-03-05T03:01:33.869Z,929.92
2019-03-05T03:02:34.618Z,929.94
2019-03-05T03:03:35.498Z,929.9
2019-03-05T03:04:36.091Z,929.92
2019-03-05T03:05:37.415Z,929.97
2019-03-05T03:06:38.009Z,929.91
2019-03-05T03:07:39.416Z,929.96
2019-03-05T03:08:40.563Z,930.01
2019-03-05T03:09:41.937Z,929.96
2019-03-05T03:10:42.546Z,929.88
2019-03-05T03:11:43.137Z,929.86
2019-03-05T03:12:44.164Z,929.93
2019-03-05T03:13:44.855Z,929.79
2019-03-05T03:14:46.032Z,929.76
2019-03-05T03:15:46.636Z,929.81
2019-03-05T03:16:47.408Z,929.71
2019-03-05T03:17:48.799Z,929.79
2019-03-05T03:18:49.747Z,929.86
2019-03-05T03:19:50.375Z,929.86
2019-03-05T03:20:50.994Z,929.89
2019-03-05T03:21:52.029Z,929.84
2019-03-05T03:22:52.338Z,929.7
2019-03-05T03:23:53.752Z,929.76
2019-03-05T03:24:54.413Z,929.79
2019-03-05T03:25:55.448Z,929.85
2019-03-05T03:26:56.596Z,929.79
2019-03-05T03:27:57.035Z,929.79
2019-03-05T03:28:57.630Z,929.8
2019-03-05T03:29:58.411Z,929.84
2019-03-05T03:30:59.801Z,929.86
2019-03-05T03:32:00.576Z,929.84
2019-03-05T03:33:01.117Z,929.84
2019-03-05T03:34:01.686Z,929.91
2019-03-05T03:35:02.662Z,929.94
2019-03-05T03:36:03.644Z,929.91
2019-03-05T03:37:04.880Z,929.92
2019-03-05T03:38:05.488Z,929.92
2019-03-05T03:39:06.816Z,929.91
2019-03-05T03:40:07.445Z,929.93
2019-03-05T03:41:08.036Z,929.92
2019-03-05T03:42:08.907Z,929.87
2019-03-05T03:43:09.308Z,929.92
2019-03-05T03:44:10.473Z,929.91
2019-03-05T03:45:11.091Z,929.91
2019-03-05T03:46:11.398Z,929.88
2019-03-05T03:47:12.705Z,929.87
2019-03-05T03:48:13.562Z,929.82
2019-03-05T03:49:13.885Z,929.88
2019-03-05T03:50:14.926Z,929.84
2019-03-05T03:51:15.844Z,929.84
2019-03-05T03:52:16.325Z,929.81
2019-03-05T03:53:17.665Z,929.86
2019-03-05T03:54:18.366Z,929.9
2019-03-05T03:55:19.578Z,929.89
2019-03-05T03:56:20.225Z,929.88
2019-03-05T03:57:21.543Z,929.86
2019-03-05T03:58:22.405Z,929.87
2019-03-05T03:59:22.988Z,929.9
2019-03-05T04:00:23.279Z,929.89
2019-03-05T04:01:24.244Z,930
2019-03-05T04:02:25.114Z,929.81
2019-03-05T04:03:25.994Z,929.82
2019-03-05T04:04:27.306Z,929.87
2019-03-05T04:05:27.633Z,929.8
2019-03-05T04:06:28.101Z,929.85
2019-03-05T04:07:28.978Z,929.88
2019-03-05T04:08:29.292Z,929.86
2019-03-05T04:09:30.607Z,929.91
2019-03-05T04:10:31.687Z,929.97
2019-03-05T04:11:33.031Z,929.96
2019-03-05T04:12:33.655Z,929.99
2019-03-05T04:13:34.973Z,930.02
2019-03-05T04:14:35.186Z,930.02
2019-03-05T04:15:35.543Z,930.03
2019-03-05T04:16:36.158Z,929.95
2019-03-05T04:17:36.916Z,930.07
2019-03-05T04:18:38.228Z,930.09
2019-03-05T04:19:39.294Z,930.04
2019-03-05T04:20:39.641Z,930.08
2019-03-05T04:21:39.959Z,930.06
2019-03-05T04:22:40.264Z,930.12
2019-03-05T04:23:41.309Z,930.07
2019-03-05T04:24:42.195Z,930.08
2019-03-05T04:25:43.233Z,930.09
2019-03-05T04:26:44.277Z,930.08
2019-03-05T04:27:45.583Z,930.09
2019-03-05T04:28:46.897Z,930.07
2019-03-05T04:29:47.648Z,930.06
2019-03-05T04:30:48.712Z,930.09
2019-03-05T04:31:49.741Z,930.07
2019-03-05T04:32:50.498Z,930.06
2019-03-05T04:33:51.371Z,930
2019-03-05T04:34:51.679Z,930.01
2019-03-05T04:35:52.521Z,930.04
2019-03-05T04:36:52.708Z,930.08
2019-03-05T04:37:53.492Z,930.08
2019-03-05T04:38:53.968Z,930.11
2019-03-05T04:39:54.438Z,930.08
2019-03-05T04:40:55.068Z,930.15
2019-03-05T04:41:56.090Z,930.12
2019-03-05T04:42:56.563Z,930.1
2019-03-05T04:43:57.034Z,930.15
2019-03-05T04:44:57.230Z,930.17
2019-03-05T04:45:57.700Z,930.14
2019-03-05T04:46:58.452Z,930.23
2019-03-05T04:47:59.477Z,930.19
2019-03-05T04:49:00.224Z,930.18
2019-03-05T04:50:01.255Z,930.18
2019-03-05T04:51:02.209Z,930.18
2019-03-05T04:52:02.986Z,930.16
2019-03-05T04:53:03.734Z,930.15
2019-03-05T04:54:04.202Z,930.06
2019-03-05T04:55:04.666Z,930.06
2019-03-05T04:56:05.417Z,930.12
2019-03-05T04:57:05.605Z,930.14
2019-03-05T04:58:05.793Z,930.13
2019-03-05T04:59:05.985Z,930.11
2019-03-05T05:00:06.198Z,930.1
2019-03-05T05:01:07.104Z,930.07
2019-03-05T05:02:07.577Z,930.07
2019-03-05T05:03:07.835Z,930.1
2019-03-05T05:04:08.862Z,930.12
2019-03-05T05:05:09.689Z,930.1
2019-03-05T05:06:10.159Z,930.08
2019-03-05T05:07:10.629Z,930.06
2019-03-05T05:08:11.405Z,930.04
2019-03-05T05:09:12.422Z,930.07
2019-03-05T05:10:13.169Z,930.1
2019-03-05T05:11:13.651Z,930.11
2019-03-05T05:12:14.408Z,930.1
2019-03-05T05:13:14.604Z,930.09
2019-03-05T05:14:15.691Z,930.08
2019-03-05T05:15:16.716Z,930.09
2019-03-05T05:16:17.185Z,930.06
2019-03-05T05:17:18.212Z,930.09
2019-03-05T05:18:19.239Z,930.05
2019-03-05T05:19:19.432Z,930.13
2019-03-05T05:20:20.180Z,930.15
2019-03-05T05:21:20.816Z,930.14
2019-03-05T05:22:21.011Z,930.07
2019-03-05T05:23:22.037Z,930.04
2019-03-05T05:24:22.225Z,930.09
2019-03-05T05:25:22.973Z,930.16
2019-03-05T05:26:23.445Z,930.13
2019-03-05T05:27:23.920Z,930.18
2019-03-05T05:28:24.150Z,930.18
2019-03-05T05:29:24.346Z,930.11
2019-03-05T05:30:25.096Z,930.14
2019-03-05T05:31:25.302Z,930.13
2019-03-05T05:32:26.047Z,930.13
2019-03-05T05:33:26.522Z,930.16
2019-03-05T05:34:26.717Z,930.16
2019-03-05T05:35:27.768Z,930.17
2019-03-05T05:36:28.806Z,930.29
2019-03-05T05:37:30.108Z,930.24
2019-03-05T05:38:30.581Z,930.3
2019-03-05T05:39:30.774Z,930.29
2019-03-05T05:40:31.852Z,930.32
2019-03-05T05:41:32.788Z,930.35
2019-03-05T05:42:33.256Z,930.36
2019-03-05T05:43:34.078Z,930.41
2019-03-05T05:44:34.545Z,930.37
2019-03-05T05:45:35.013Z,930.39
2019-03-05T05:46:35.833Z,930.45
2019-03-05T05:47:36.302Z,930.47
2019-03-05T05:48:36.773Z,930.45
2019-03-05T05:49:37.240Z,930.57
2019-03-05T05:50:37.817Z,930.5
2019-03-05T05:51:38.048Z,930.52
2019-03-05T05:52:38.514Z,930.55
2019-03-05T05:53:39.339Z,930.56
2019-03-05T05:54:40.363Z,930.58
2019-03-05T05:55:41.391Z,930.58
2019-03-05T05:56:41.580Z,930.64
2019-03-05T05:57:42.048Z,930.7
2019-03-05T05:58:42.237Z,930.7
2019-03-05T05:59:43.051Z,930.69
2019-03-05T06:00:44.366Z,930.71
2019-03-05T06:01:44.870Z,930.73
2019-03-05T06:02:45.900Z,930.74
2019-03-05T06:03:46.930Z,930.74
2019-03-05T06:04:47.676Z,930.55
2019-03-05T06:05:48.144Z,930.67
2019-03-05T06:06:48.896Z,930.74
2019-03-05T06:07:49.368Z,930.76
2019-03-05T06:08:49.840Z,930.72
2019-03-05T06:09:50.585Z,930.73
2019-03-05T06:10:53.384Z,930.58
2019-03-05T06:11:53.903Z,930.71
2019-03-05T06:12:54.739Z,930.62
2019-03-05T06:13:55.489Z,930.78
2019-03-05T06:14:56.515Z,930.85
2019-03-05T06:15:57.544Z,930.82
2019-03-05T06:16:58.296Z,930.72
2019-03-05T06:17:59.323Z,930.87
2019-03-05T06:18:59.518Z,930.89
2019-03-05T06:20:00.319Z,930.91
2019-03-05T06:21:01.099Z,930.93
2019-03-05T06:22:02.024Z,930.87
2019-03-05T06:23:02.849Z,930.91
2019-03-05T06:24:03.674Z,930.9
2019-03-05T06:25:04.805Z,930.92
2019-03-05T06:26:09.152Z,930.89
2019-03-05T06:27:09.686Z,930.95
2019-03-05T06:28:10.445Z,930.93
2019-03-05T06:29:11.197Z,930.94
2019-03-05T06:30:11.668Z,930.92
2019-03-05T06:31:12.767Z,930.85
2019-03-05T06:32:13.671Z,930.91
2019-03-05T06:33:14.615Z,930.9
2019-03-05T06:34:15.128Z,930.9
2019-03-05T06:35:16.462Z,930.95
2019-03-05T06:36:17.045Z,930.88
2019-03-05T06:37:17.815Z,930.93
2019-03-05T06:38:18.291Z,930.9
2019-03-05T06:39:18.764Z,930.93
2019-03-05T06:40:19.519Z,930.95
2019-03-05T06:41:20.328Z,930.95
2019-03-05T06:42:20.678Z,930.89
2019-03-05T06:43:21.424Z,930.98
2019-03-05T06:44:22.915Z,930.95
2019-03-05T06:45:23.543Z,930.95
2019-03-05T06:46:24.345Z,930.95
2019-03-05T06:47:24.661Z,930.96
2019-03-05T06:48:25.695Z,931
2019-03-05T06:49:26.444Z,930.98
2019-03-05T06:50:27.769Z,931.07
2019-03-05T06:51:28.798Z,931.04
2019-03-05T06:52:29.281Z,931.09
2019-03-05T06:53:30.119Z,931.09
2019-03-05T06:54:30.868Z,931.07
2019-03-05T06:55:31.620Z,931.14
2019-03-05T06:56:32.157Z,931.13
2019-03-05T06:57:32.908Z,931.14
2019-03-05T06:58:33.392Z,931.07
2019-03-05T06:59:33.973Z,931.06
2019-03-05T07:00:35.106Z,931.12
2019-03-05T07:01:35.532Z,931.11
2019-03-05T07:02:36.005Z,931.24
2019-03-05T07:03:36.655Z,931.24
2019-03-05T07:04:37.163Z,931.26
2019-03-05T07:05:37.878Z,931.22
2019-03-05T07:06:38.133Z,931.29
2019-03-05T07:07:38.607Z,931.28
2019-03-05T07:08:39.482Z,931.27
2019-03-05T07:09:39.790Z,931.27
2019-03-05T07:10:41.162Z,931.28
2019-03-05T07:11:41.705Z,931.3
2019-03-05T07:12:42.666Z,931.35
2019-03-05T07:13:43.745Z,931.38
2019-03-05T07:14:44.751Z,931.46
2019-03-05T07:15:45.684Z,931.54
2019-03-05T07:16:46.714Z,931.54
2019-03-05T07:17:47.997Z,931.55
2019-03-05T07:18:49.026Z,931.56
2019-03-05T07:19:59.769Z,931.46
2019-03-05T07:21:00.815Z,931.42
2019-03-05T07:22:01.565Z,931.5
2019-03-05T07:23:02.354Z,931.5
2019-03-05T07:24:02.826Z,931.49
2019-03-05T07:25:03.867Z,931.44
2019-03-05T07:26:04.616Z,931.5
2019-03-05T07:27:04.887Z,931.44
2019-03-05T07:28:05.372Z,931.42
2019-03-05T07:29:06.061Z,931.46
2019-03-05T07:30:07.089Z,931.47
2019-03-05T07:31:08.254Z,931.44
2019-03-05T07:32:09.565Z,931.42
2019-03-05T07:33:09.947Z,931.43
2019-03-05T07:34:10.730Z,931.52
2019-03-05T07:35:11.204Z,931.52
2019-03-05T07:36:11.680Z,931.56
2019-03-05T07:37:12.047Z,931.51
2019-03-05T07:38:12.403Z,931.48
2019-03-05T07:39:13.431Z,931.4
2019-03-05T07:40:14.970Z,931.46
2019-03-05T07:41:15.471Z,931.46
2019-03-05T07:42:16.810Z,931.49
2019-03-05T07:43:17.489Z,931.57
2019-03-05T07:44:18.311Z,931.55
2019-03-05T07:45:19.108Z,931.63
2019-03-05T07:46:19.320Z,931.64
2019-03-05T07:47:20.077Z,931.62
2019-03-05T07:48:21.451Z,931.7
2019-03-05T07:49:22.043Z,931.69
2019-03-05T07:50:22.525Z,931.68
2019-03-05T07:51:23.452Z,931.61
2019-03-05T07:52:24.219Z,931.66
2019-03-05T07:53:24.770Z,931.68
2019-03-05T07:54:26.371Z,931.62
2019-03-05T07:55:27.432Z,931.61
2019-03-05T07:56:28.480Z,931.74
2019-03-05T07:57:30.265Z,931.75
2019-03-05T07:57:39.591Z,931.75
2019-03-05T07:57:50.004Z,931.73
2019-03-05T07:58:00.783Z,931.82
2019-03-05T07:58:59.778Z,931.8
2019-03-05T08:00:00.540Z,931.68
2019-03-05T08:01:01.177Z,931.63
2019-03-05T08:02:02.479Z,931.7
2019-03-05T08:03:03.798Z,931.61
2019-03-05T08:04:04.278Z,931.73
2019-03-05T08:05:05.323Z,931.73
2019-03-05T08:06:06.085Z,931.78
2019-03-05T08:07:06.846Z,931.82
2019-03-05T08:08:07.050Z,931.87
2019-03-05T08:09:07.844Z,931.81
2019-03-05T08:10:08.769Z,932.06
2019-03-05T08:11:09.532Z,932.04
2019-03-05T08:12:10.285Z,931.98
2019-03-05T08:13:10.482Z,932.02
2019-03-05T08:14:11.514Z,931.83
2019-03-05T08:15:13.490Z,931.79
2019-03-05T08:15:22.557Z,931.72
2019-03-05T08:15:33.374Z,931.72
2019-03-05T08:16:33.846Z,931.82
2019-03-05T08:17:34.435Z,931.88
2019-03-05T08:18:35.477Z,931.59
2019-03-05T08:19:35.787Z,931.76
2019-03-05T08:20:36.335Z,931.87
2019-03-05T08:21:36.532Z,931.8
2019-03-05T08:22:37.352Z,931.85
2019-03-05T08:23:38.217Z,931.86
2019-03-05T08:24:38.981Z,931.83
2019-03-05T08:25:39.576Z,931.86
2019-03-05T08:26:39.817Z,931.8
2019-03-05T08:27:40.853Z,931.88
2019-03-05T08:28:41.330Z,931.87
2019-03-05T08:29:41.642Z,931.9
2019-03-05T08:30:42.747Z,931.86
2019-03-05T08:31:43.513Z,931.82
2019-03-05T08:32:44.272Z,931.79
2019-03-05T08:33:45.385Z,931.86
2019-03-05T08:34:46.143Z,931.83
2019-03-05T08:35:46.341Z,931.84
2019-03-05T08:36:46.850Z,931.94
2019-03-05T08:37:47.332Z,931.94
2019-03-05T08:38:48.116Z,932.01
2019-03-05T08:39:48.439Z,932
2019-03-05T08:40:48.915Z,931.9
2019-03-05T08:41:50.247Z,932.04
2019-03-05T08:42:51.303Z,931.88
2019-03-05T08:43:54.536Z,931.98
2019-03-05T08:44:54.745Z,931.92
2019-03-05T08:45:54.943Z,931.95
2019-03-05T08:46:55.876Z,931.99
2019-03-05T08:47:56.081Z,932.06
2019-03-05T08:48:56.588Z,931.94
2019-03-05T08:49:57.350Z,931.94
2019-03-05T08:50:57.733Z,931.87
2019-03-05T08:51:58.327Z,932.01
2019-03-05T08:52:58.532Z,932.03
2019-03-05T08:53:58.850Z,932.03
2019-03-05T08:54:59.612Z,932.11
2019-03-05T08:56:00.692Z,932.02
2019-03-05T08:57:01.923Z,932.16
2019-03-05T08:58:02.698Z,932.15
2019-03-05T08:59:03.076Z,932.05
2019-03-05T09:00:03.570Z,932.1
2019-03-05T09:01:03.890Z,932.13
2019-03-05T09:02:04.288Z,932.12
2019-03-05T09:03:04.778Z,932.13
2019-03-05T09:04:05.265Z,932.06
2019-03-05T09:05:05.745Z,932.07
2019-03-05T09:06:06.786Z,932.07
2019-03-05T09:07:07.472Z,932.21
2019-03-05T09:08:07.796Z,932.08
2019-03-05T09:09:08.839Z,932.13
2019-03-05T09:10:09.324Z,931.98
2019-03-05T09:11:09.927Z,931.97
2019-03-05T09:12:10.702Z,932.03
2019-03-05T09:13:12.028Z,932.11
2019-03-05T09:14:12.512Z,932.02
2019-03-05T09:15:13.322Z,931.97
2019-03-05T09:16:13.815Z,931.91
2019-03-05T09:17:14.763Z,931.93
2019-03-05T09:18:15.259Z,931.96
2019-03-05T09:19:17.003Z,932
2019-03-05T09:20:16.657Z,931.96
2019-03-05T09:21:17.699Z,931.84
2019-03-05T09:22:18.304Z,931.99
2019-03-05T09:23:19.353Z,931.97
2019-03-05T09:24:20.117Z,931.9
2019-03-05T09:25:22.204Z,931.97
2019-03-05T09:25:31.156Z,931.92
2019-03-05T09:26:33.017Z,931.88
2019-03-05T09:26:50.653Z,931.88
2019-03-05T09:26:52.674Z,931.89
2019-03-05T09:27:55.290Z,931.94
2019-03-05T09:28:02.250Z,931.91
2019-03-05T09:29:02.891Z,931.92
2019-03-05T09:30:03.093Z,931.94
2019-03-05T09:31:04.944Z,931.98
2019-03-05T09:31:14.441Z,931.99
2019-03-05T09:31:24.870Z,932
2019-03-05T09:31:35.108Z,931.98
2019-03-05T09:31:45.496Z,931.99
2019-03-05T09:31:55.766Z,932.02
2019-03-05T09:32:06.418Z,931.97
2019-03-05T09:32:15.806Z,931.96
2019-03-05T09:32:25.850Z,931.97
2019-03-05T09:33:27.622Z,931.91
2019-03-05T09:33:35.980Z,931.91
2019-03-05T09:34:36.937Z,931.95
2019-03-05T09:35:37.417Z,931.92
2019-03-05T09:36:38.173Z,931.88
2019-03-05T09:36:51.116Z,931.91
2019-03-05T09:37:50.818Z,931.92
2019-03-05T09:37:59.886Z,931.88
2019-03-05T09:39:00.407Z,931.94
2019-03-05T09:39:10.860Z,931.92
2019-03-05T09:40:10.535Z,931.95
2019-03-05T09:41:12.544Z,931.93
2019-03-05T09:41:21.536Z,931.95
2019-03-05T09:41:32.358Z,931.94
2019-03-05T09:41:42.083Z,931.94
2019-03-05T09:41:51.955Z,931.97
2019-03-05T09:42:52.551Z,932.01
2019-03-05T09:43:53.310Z,931.96
2019-03-05T09:44:54.350Z,931.94
2019-03-05T09:45:54.553Z,931.9
2019-03-05T09:46:56.007Z,931.92
2019-03-05T09:47:57.200Z,931.87
2019-03-05T09:48:58.034Z,931.82
2019-03-05T09:49:59.072Z,931.9
2019-03-05T09:50:59.701Z,931.82
2019-03-05T09:52:01.029Z,931.97
2019-03-05T09:53:03.448Z,931.87
2019-03-05T09:53:12.509Z,931.88
2019-03-05T09:53:22.958Z,931.91
2019-03-05T09:53:33.271Z,931.88
2019-03-05T09:54:33.299Z,931.89
2019-03-05T09:55:34.060Z,931.9
2019-03-05T09:56:35.106Z,931.81
2019-03-05T09:57:35.874Z,931.88
2019-03-05T09:58:36.195Z,931.88
2019-03-05T09:59:37.230Z,931.83
2019-03-05T10:00:37.429Z,931.87
2019-03-05T10:01:37.911Z,931.95
2019-03-05T10:02:40.959Z,931.96
2019-03-05T10:02:49.002Z,931.95
2019-03-05T10:02:59.299Z,931.96
2019-03-05T10:03:09.127Z,931.93
2019-03-05T10:04:10.399Z,931.83
2019-03-05T10:04:20.629Z,931.83
2019-03-05T10:04:31.129Z,931.84
2019-03-05T10:04:41.024Z,931.87
2019-03-05T10:04:51.571Z,931.89
2019-03-05T10:05:01.280Z,931.94
2019-03-05T10:05:11.941Z,931.9
2019-03-05T10:05:21.679Z,931.95
2019-03-05T10:06:22.592Z,931.95
2019-03-05T10:07:23.912Z,931.91
2019-03-05T10:08:34.581Z,931.84
2019-03-05T10:09:35.512Z,931.89
2019-03-05T10:10:35.762Z,931.94
2019-03-05T10:11:36.546Z,931.88
2019-03-05T10:12:37.642Z,931.83
2019-03-05T10:13:39.928Z,931.92
2019-03-05T10:13:49.120Z,931.86
2019-03-05T10:13:59.550Z,931.88
2019-03-05T10:14:59.523Z,931.88
2019-03-05T10:16:00.457Z,931.87
2019-03-05T10:17:00.665Z,931.86
2019-03-05T10:18:12.869Z,931.86
2019-03-05T10:19:12.402Z,931.89
2019-03-05T10:20:13.158Z,931.83
2019-03-05T10:21:14.220Z,931.83
2019-03-05T10:22:15.262Z,931.73
2019-03-05T10:23:15.764Z,931.79
2019-03-05T10:24:16.524Z,931.81
2019-03-05T10:25:18.048Z,931.77
2019-03-05T10:26:19.437Z,931.77
2019-03-05T10:27:20.226Z,931.72
2019-03-05T10:28:21.306Z,931.81
2019-03-05T10:29:21.967Z,931.76
2019-03-05T10:30:25.531Z,931.79
2019-03-05T10:31:26.586Z,931.81
2019-03-05T10:32:27.349Z,931.83
2019-03-05T10:33:27.830Z,931.78
2019-03-05T10:34:28.313Z,931.77
2019-03-05T10:35:28.511Z,931.72
2019-03-05T10:36:29.272Z,931.7
2019-03-05T10:37:30.028Z,931.69
2019-03-05T10:38:30.511Z,931.75
2019-03-05T10:39:32.003Z,931.7
2019-03-05T10:40:32.794Z,931.65
2019-03-05T10:41:33.281Z,931.6
2019-03-05T10:42:33.775Z,931.64
2019-03-05T10:43:34.809Z,931.72
2019-03-05T10:44:36.797Z,931.75
2019-03-05T10:44:45.795Z,931.77
2019-03-05T10:44:55.884Z,931.78
2019-03-05T10:45:06.330Z,931.82
2019-03-05T10:45:17.156Z,931.78
2019-03-05T10:45:26.840Z,931.76
2019-03-05T10:46:27.298Z,931.87
2019-03-05T10:47:27.852Z,931.8
2019-03-05T10:48:30.748Z,931.73
2019-03-05T10:49:31.534Z,931.76
2019-03-05T10:50:32.025Z,931.72
2019-03-05T10:51:32.230Z,931.64
2019-03-05T10:52:33.279Z,931.63
2019-03-05T10:53:34.130Z,931.52
2019-03-05T10:54:34.615Z,931.51
2019-03-05T10:55:35.727Z,931.46
2019-03-05T10:56:36.765Z,931.61
2019-03-05T10:57:37.560Z,931.5
2019-03-05T10:58:38.508Z,931.41
2019-03-05T10:59:40.934Z,931.48
2019-03-05T10:59:50.189Z,931.42
2019-03-05T11:00:00.530Z,931.39
2019-03-05T11:00:10.808Z,931.39
2019-03-05T11:00:21.120Z,931.39
2019-03-05T11:00:31.454Z,931.41
2019-03-05T11:01:32.236Z,931.39
2019-03-05T11:01:41.815Z,931.34
2019-03-05T11:02:42.842Z,931.37
2019-03-05T11:03:44.007Z,931.44
2019-03-05T11:04:46.815Z,931.42
2019-03-05T11:04:54.703Z,931.41
2019-03-05T11:05:55.756Z,931.44
2019-03-05T11:06:56.487Z,931.33
2019-03-05T11:07:57.009Z,931.34
2019-03-05T11:08:57.896Z,931.37
2019-03-05T11:09:59.350Z,931.33
2019-03-05T11:10:59.938Z,931.2
2019-03-05T11:11:13.709Z,931.19
2019-03-05T11:11:20.738Z,931.09
2019-03-05T11:12:20.817Z,931.17
2019-03-05T11:13:21.559Z,931.33
2019-03-05T11:14:21.805Z,931.3
2019-03-05T11:15:23.179Z,931.19
2019-03-05T11:16:31.388Z,931.33
2019-03-05T11:16:33.957Z,931.35
2019-03-05T11:17:34.475Z,931.39
2019-03-05T11:18:35.200Z,931.26
2019-03-05T11:19:35.994Z,931.19
2019-03-05T11:20:36.344Z,931.15
2019-03-05T11:21:37.391Z,931.16
2019-03-05T11:22:38.044Z,931.29
2019-03-05T11:23:39.089Z,931.3
2019-03-05T11:24:39.863Z,931.25
2019-03-05T11:25:40.950Z,931.17
2019-03-05T11:26:42.132Z,931.25
2019-03-05T11:27:43.709Z,931.29
2019-03-05T11:27:53.001Z,931.26
2019-03-05T11:28:55.958Z,931.3
2019-03-05T11:29:03.250Z,931.35
2019-03-05T11:30:06.005Z,931.21
2019-03-05T11:31:06.448Z,931.13
2019-03-05T11:32:07.563Z,931.23
2019-03-05T11:33:08.612Z,931.25
2019-03-05T11:34:08.894Z,931.34
2019-03-05T11:35:09.877Z,931.39
2019-03-05T11:36:10.357Z,931.31
2019-03-05T11:37:11.402Z,931.39
2019-03-05T11:38:13.561Z,931.44
2019-03-05T11:39:14.044Z,931.36
2019-03-05T11:40:21.556Z,931.35
2019-03-05T11:40:24.664Z,931.33
2019-03-05T11:41:25.434Z,931.43
2019-03-05T11:42:26.196Z,931.42
2019-03-05T11:43:26.402Z,931.4
2019-03-05T11:44:27.440Z,931.32
2019-03-05T11:45:30.117Z,931.42
2019-03-05T11:46:32.008Z,931.33
2019-03-05T11:46:41.199Z,931.41
2019-03-05T11:47:41.594Z,931.26
2019-03-05T11:48:42.636Z,931.41
2019-03-05T11:49:43.397Z,931.3
2019-03-05T11:50:43.881Z,931.36